createdAt,value
2022-09-17T00:01:31.747Z,0.93
2022-09-17T00:04:04.340Z,0.98
2022-09-17T00:06:36.877Z,0.75
2022-09-17T00:09:06.255Z,1.23
2022-09-17T00:11:36.924Z,1.65
2022-09-17T00:14:07.172Z,1.83
2022-09-17T00:16:39.285Z,1.38
2022-09-17T00:19:10.215Z,0.65
2022-09-17T00:21:39.798Z,0.80
2022-09-17T00:24:08.864Z,1.05
2022-09-17T00:26:37.401Z,2.00
2022-09-17T00:29:06.271Z,1.70
2022-09-17T00:31:35.827Z,1.40
2022-09-17T00:34:05.506Z,1.70
2022-09-17T00:36:36.547Z,0.80
2022-09-17T00:39:07.795Z,1.55
2022-09-17T00:41:37.812Z,0.80
2022-09-17T00:44:38.588Z,0.80
2022-09-17T00:47:09.570Z,0.88
2022-09-17T00:49:37.725Z,0.85
2022-09-17T00:52:11.584Z,1.00
2022-09-17T00:54:45.723Z,1.42
2022-09-17T00:57:14.092Z,0.60
2022-09-17T00:59:42.570Z,0.70
2022-09-17T01:02:11.453Z,0.75
2022-09-17T01:04:39.835Z,0.82
2022-09-17T01:07:12.640Z,0.75
2022-09-17T01:09:49.920Z,0.93
2022-09-17T01:12:31.907Z,1.02
2022-09-17T01:15:16.699Z,1.00
2022-09-17T01:17:53.873Z,1.35
2022-09-17T01:21:08.062Z,1.58
2022-09-17T01:24:07.330Z,0.95
2022-09-17T01:27:05.765Z,1.58
2022-09-17T01:29:51.149Z,1.25
2022-09-17T01:32:26.816Z,2.20
2022-09-17T01:35:00.563Z,1.95
2022-09-17T01:37:34.898Z,2.28
2022-09-17T01:40:09.113Z,2.30
2022-09-17T01:42:44.251Z,1.35
2022-09-17T01:45:17.839Z,2.40
2022-09-17T01:47:52.245Z,1.98
2022-09-17T01:50:25.384Z,1.52
2022-09-17T01:52:56.641Z,2.38
2022-09-17T01:55:31.037Z,1.33
2022-09-17T01:58:03.695Z,1.27
2022-09-17T02:00:32.303Z,2.20
2022-09-17T02:03:08.368Z,1.80
2022-09-17T02:05:40.655Z,2.22
2022-09-17T02:08:14.915Z,1.70
2022-09-17T02:10:47.474Z,1.92
2022-09-17T02:13:21.145Z,2.30
2022-09-17T02:15:53.788Z,2.25
2022-09-17T02:18:29.019Z,1.73
2022-09-17T02:21:05.038Z,1.90
2022-09-17T02:23:37.949Z,2.17
2022-09-17T02:26:10.853Z,2.10
2022-09-17T02:28:44.214Z,1.60
2022-09-17T02:31:12.768Z,2.47
2022-09-17T02:33:44.765Z,2.33
2022-09-17T02:36:13.266Z,1.57
2022-09-17T02:38:45.598Z,2.10
2022-09-17T02:41:17.501Z,1.33
2022-09-17T02:43:57.055Z,1.60
2022-09-17T02:46:51.658Z,1.20
2022-09-17T02:49:40.979Z,1.42
2022-09-17T02:52:16.947Z,1.37
2022-09-17T02:55:00.675Z,1.70
2022-09-17T02:57:33.252Z,1.73
2022-09-17T03:00:08.385Z,2.33
2022-09-17T03:02:40.832Z,1.40
2022-09-17T03:05:11.262Z,1.90
2022-09-17T03:07:39.758Z,0.90
2022-09-17T03:10:08.877Z,1.13
2022-09-17T03:12:38.616Z,1.15
2022-09-17T03:15:07.603Z,1.17
2022-09-17T03:17:35.873Z,1.10
2022-09-17T03:20:04.854Z,1.05
2022-09-17T03:22:34.433Z,1.20
2022-09-17T03:25:02.731Z,0.80
2022-09-17T03:27:30.889Z,0.50
2022-09-17T03:29:59.450Z,0.50
2022-09-17T03:32:27.706Z,1.08
2022-09-17T03:34:55.874Z,0.70
2022-09-17T03:37:24.070Z,0.77
2022-09-17T03:39:53.593Z,0.47
2022-09-17T03:42:21.850Z,0.60
2022-09-17T03:44:50.024Z,0.40
2022-09-17T03:47:18.210Z,0.40
2022-09-17T03:49:46.524Z,0.50
2022-09-17T03:52:14.679Z,1.13
2022-09-17T03:54:42.806Z,0.60
2022-09-17T03:57:12.354Z,0.82
2022-09-17T03:59:40.539Z,1.10
2022-09-17T04:02:08.823Z,0.57
2022-09-17T04:04:37.214Z,0.47
2022-09-17T04:07:05.587Z,0.70
2022-09-17T04:09:35.375Z,0.57
2022-09-17T04:12:04.260Z,1.10
2022-09-17T04:14:34.866Z,0.80
2022-09-17T04:17:03.066Z,0.60
2022-09-17T04:19:31.356Z,0.80
2022-09-17T04:22:00.240Z,0.50
2022-09-17T04:24:28.486Z,0.38
2022-09-17T04:26:56.649Z,0.60
2022-09-17T04:29:24.942Z,0.32
2022-09-17T04:31:54.662Z,0.73
2022-09-17T04:34:22.858Z,0.63
2022-09-17T04:36:51.073Z,0.55
2022-09-17T04:39:19.235Z,0.40
2022-09-17T04:41:47.993Z,0.30
2022-09-17T04:44:16.253Z,0.40
2022-09-17T04:46:44.447Z,0.40
2022-09-17T04:49:14.188Z,0.40
2022-09-17T04:51:42.385Z,0.30
2022-09-17T04:54:10.601Z,0.40
2022-09-17T04:56:38.792Z,0.30
2022-09-17T04:59:06.964Z,0.30
2022-09-17T05:01:35.133Z,0.40
2022-09-17T05:04:03.605Z,0.20
2022-09-17T05:06:33.127Z,0.50
2022-09-17T05:09:02.158Z,0.35
2022-09-17T05:11:30.490Z,0.22
2022-09-17T05:13:58.676Z,0.60
2022-09-17T05:16:27.089Z,0.10
2022-09-17T05:18:55.721Z,0.15
2022-09-17T05:21:23.912Z,0.15
2022-09-17T05:23:53.718Z,0.20
2022-09-17T05:26:22.417Z,1.00
2022-09-17T05:28:50.668Z,0.20
2022-09-17T05:31:18.840Z,0.10
2022-09-17T05:33:48.347Z,0.30
2022-09-17T05:36:16.466Z,0.10
2022-09-17T05:38:44.676Z,0.20
2022-09-17T05:41:14.276Z,0.30
2022-09-17T05:43:44.457Z,0.30
2022-09-17T05:46:12.994Z,0.45
2022-09-17T05:48:41.236Z,0.73
2022-09-17T05:51:09.489Z,0.20
2022-09-17T05:53:37.930Z,0.22
2022-09-17T05:56:06.559Z,0.30
2022-09-17T05:58:36.204Z,0.30
2022-09-17T06:01:04.500Z,0.35
2022-09-17T06:03:32.697Z,0.30
2022-09-17T06:06:01.725Z,0.30
2022-09-17T06:08:30.838Z,0.20
2022-09-17T06:11:02.235Z,0.20
2022-09-17T06:13:30.982Z,0.20
2022-09-17T06:16:01.515Z,0.30
2022-09-17T06:18:30.845Z,0.20
2022-09-17T06:21:01.008Z,0.50
2022-09-17T06:23:35.171Z,0.63
2022-09-17T06:26:04.765Z,0.30
2022-09-17T06:28:37.882Z,0.40
2022-09-17T06:31:12.652Z,0.40
2022-09-17T06:33:41.141Z,0.88
2022-09-17T06:36:14.122Z,0.40
2022-09-17T06:38:43.556Z,0.57
2022-09-17T06:41:12.433Z,0.90
2022-09-17T06:43:41.795Z,0.40
2022-09-17T06:46:12.756Z,0.63
2022-09-17T06:48:40.994Z,0.77
2022-09-17T06:51:11.934Z,0.90
2022-09-17T06:53:40.727Z,0.80
2022-09-17T06:56:10.386Z,0.30
2022-09-17T06:58:41.494Z,0.32
2022-09-17T07:01:12.930Z,0.30
2022-09-17T07:03:44.023Z,0.80
2022-09-17T07:06:13.004Z,0.80
2022-09-17T07:08:41.608Z,0.60
2022-09-17T07:11:09.839Z,0.68
2022-09-17T07:13:38.018Z,0.60
2022-09-17T07:16:07.459Z,0.50
2022-09-17T07:18:37.184Z,0.45
2022-09-17T07:21:07.413Z,0.20
2022-09-17T07:23:37.265Z,0.73
2022-09-17T07:26:07.374Z,0.28
2022-09-17T07:28:36.068Z,0.40
2022-09-17T07:31:06.467Z,0.50
2022-09-17T07:33:37.845Z,0.45
2022-09-17T07:36:08.023Z,0.93
2022-09-17T07:38:36.554Z,0.40
2022-09-17T07:41:06.366Z,0.40
2022-09-17T07:43:35.762Z,0.30
2022-09-17T07:46:06.527Z,0.60
2022-09-17T07:48:35.482Z,0.40
2022-09-17T07:51:05.162Z,1.52
2022-09-17T07:53:33.343Z,0.20
2022-09-17T07:56:02.275Z,0.20
2022-09-17T07:58:32.600Z,0.20
2022-09-17T08:01:04.161Z,0.63
2022-09-17T08:03:32.432Z,0.30
2022-09-17T08:06:06.693Z,0.47
2022-09-17T08:08:36.941Z,0.20
2022-09-17T08:11:07.741Z,0.20
2022-09-17T08:13:36.078Z,0.28
2022-09-17T08:16:06.575Z,0.35
2022-09-17T08:18:35.760Z,0.73
2022-09-17T08:21:07.009Z,0.30
2022-09-17T08:23:37.415Z,0.17
2022-09-17T08:26:08.575Z,0.32
2022-09-17T08:28:37.237Z,0.30
2022-09-17T08:31:06.862Z,0.10
2022-09-17T08:33:36.582Z,0.10
2022-09-17T08:36:07.073Z,0.17
2022-09-17T08:38:38.340Z,0.08
2022-09-17T08:41:20.373Z,0.20
2022-09-17T08:43:53.670Z,0.20
2022-09-17T08:46:22.317Z,0.22
2022-09-17T08:48:57.375Z,0.28
2022-09-17T08:51:36.843Z,0.03
2022-09-17T08:54:11.314Z,0.45
2022-09-17T08:56:41.605Z,0.10
2022-09-17T08:59:22.767Z,0.10
2022-09-17T09:02:00.651Z,0.20
2022-09-17T09:05:03.705Z,0.38
2022-09-17T09:07:42.489Z,0.10
2022-09-17T09:10:18.355Z,0.43
2022-09-17T09:12:50.187Z,0.10
2022-09-17T09:15:27.259Z,0.10
2022-09-17T09:17:55.924Z,0.05
2022-09-17T09:20:33.335Z,0.10
2022-09-17T09:23:10.155Z,0.45
2022-09-17T09:25:43.735Z,0.43
2022-09-17T09:28:33.009Z,0.68
2022-09-17T09:31:17.760Z,0.30
2022-09-17T09:33:48.086Z,0.30
2022-09-17T09:36:21.774Z,0.40
2022-09-17T09:38:57.701Z,0.47
2022-09-17T09:41:32.755Z,1.27
2022-09-17T09:44:06.952Z,0.40
2022-09-17T09:47:02.985Z,0.30
2022-09-17T09:49:46.349Z,0.20
2022-09-17T09:52:28.888Z,0.40
2022-09-17T09:55:17.842Z,0.50
2022-09-17T09:57:48.532Z,0.30
2022-09-17T10:00:30.041Z,0.30
2022-09-17T10:03:05.340Z,0.10
2022-09-17T10:05:33.780Z,0.20
2022-09-17T10:08:11.114Z,0.10
2022-09-17T10:10:55.900Z,0.63
2022-09-17T10:13:25.072Z,0.10
2022-09-17T10:15:53.550Z,0.20
2022-09-17T10:18:23.423Z,0.40
2022-09-17T10:20:59.504Z,0.40
2022-09-17T10:23:30.207Z,0.77
2022-09-17T10:25:59.827Z,0.30
2022-09-17T10:28:46.754Z,0.30
2022-09-17T10:31:15.461Z,0.30
2022-09-17T10:33:54.401Z,0.28
2022-09-17T10:36:39.665Z,0.30
2022-09-17T10:39:31.839Z,0.50
2022-09-17T10:42:03.289Z,1.10
2022-09-17T10:44:34.563Z,0.30
2022-09-17T10:47:15.368Z,0.30
2022-09-17T10:49:45.978Z,0.50
2022-09-17T10:52:24.718Z,0.30
2022-09-17T10:55:07.141Z,0.47
2022-09-17T10:57:55.149Z,0.40
2022-09-17T11:00:24.897Z,1.50
2022-09-17T11:03:37.851Z,0.40
2022-09-17T11:06:23.980Z,0.50
2022-09-17T11:09:03.620Z,0.80
2022-09-17T11:11:45.787Z,0.75
2022-09-17T11:14:27.771Z,1.17
2022-09-17T11:17:04.162Z,0.40
2022-09-17T11:19:45.484Z,0.70
2022-09-17T11:22:23.186Z,0.50
2022-09-17T11:25:12.506Z,0.60
2022-09-17T11:27:50.417Z,0.55
2022-09-17T11:30:21.835Z,0.40
2022-09-17T11:33:07.408Z,0.57
2022-09-17T11:35:40.121Z,0.50
2022-09-17T11:38:14.229Z,0.63
2022-09-17T11:40:45.663Z,0.43
2022-09-17T11:43:23.166Z,0.43
2022-09-17T11:46:01.364Z,0.80
2022-09-17T11:48:37.433Z,0.70
2022-09-17T11:51:16.064Z,1.25
2022-09-17T11:53:49.153Z,0.70
2022-09-17T11:56:22.792Z,0.50
2022-09-17T11:58:59.206Z,1.45
2022-09-17T12:01:40.427Z,0.60
2022-09-17T12:04:27.563Z,0.40
2022-09-17T12:07:01.243Z,0.70
2022-09-17T12:09:34.035Z,1.73
2022-09-17T12:12:06.866Z,0.50
2022-09-17T12:14:45.693Z,0.60
2022-09-17T12:17:21.451Z,0.65
2022-09-17T12:19:54.304Z,0.40
2022-09-17T12:22:25.726Z,0.40
2022-09-17T12:24:54.903Z,0.20
2022-09-17T12:27:35.055Z,0.22
2022-09-17T12:30:10.067Z,0.30
2022-09-17T12:36:04.502Z,0.15
2022-09-17T12:39:03.084Z,0.20
2022-09-17T12:41:41.210Z,0.50
2022-09-17T12:44:31.280Z,0.28
2022-09-17T12:47:19.688Z,0.10
2022-09-17T12:50:04.088Z,0.03
2022-09-17T12:52:45.013Z,0.10
2022-09-17T12:55:33.572Z,0.10
2022-09-17T12:58:14.015Z,0.10
2022-09-17T13:00:45.861Z,0.20
2022-09-17T13:03:22.284Z,0.13
2022-09-17T13:06:18.529Z,0.20
2022-09-17T13:09:42.493Z,0.20
2022-09-17T13:12:26.081Z,0.20
2022-09-17T13:15:30.806Z,0.20
2022-09-17T13:18:23.510Z,0.17
2022-09-17T13:21:05.684Z,0.30
2022-09-17T13:23:36.990Z,0.10
2022-09-17T13:26:07.595Z,0.20
2022-09-17T13:28:47.304Z,0.20
2022-09-17T13:31:22.349Z,0.20
2022-09-17T13:33:56.855Z,0.20
2022-09-17T13:36:47.383Z,0.10
2022-09-17T13:39:41.568Z,0.10
2022-09-17T13:42:17.310Z,0.10
2022-09-17T13:44:49.632Z,0.20
2022-09-17T13:47:26.333Z,0.47
2022-09-17T13:49:59.888Z,0.10
2022-09-17T13:52:40.171Z,0.10
2022-09-17T13:55:09.642Z,0.10
2022-09-17T13:57:51.872Z,0.35
2022-09-17T14:00:52.769Z,0.20
2022-09-17T14:03:57.142Z,0.30
2022-09-17T14:06:53.809Z,0.40
2022-09-17T14:09:50.211Z,0.52
2022-09-17T14:12:55.416Z,0.10
2022-09-17T14:15:39.463Z,0.10
2022-09-17T14:18:39.193Z,0.20
2022-09-17T14:21:15.061Z,0.20
2022-09-17T14:23:48.464Z,0.30
2022-09-17T14:26:26.674Z,0.22
2022-09-17T14:29:04.341Z,0.10
2022-09-17T14:31:36.917Z,0.20
2022-09-17T14:34:07.450Z,0.20
2022-09-17T14:36:39.705Z,0.30
2022-09-17T14:39:17.002Z,0.20
2022-09-17T14:41:46.447Z,0.30
2022-09-17T14:44:19.706Z,0.57
2022-09-17T14:46:55.169Z,0.30
2022-09-17T14:49:24.696Z,0.55
2022-09-17T14:51:53.571Z,0.50
2022-09-17T14:54:24.941Z,0.47
2022-09-17T14:56:56.170Z,0.60
2022-09-17T14:59:32.404Z,0.20
2022-09-17T15:02:00.936Z,0.40
2022-09-17T15:04:29.870Z,0.38
2022-09-17T15:07:09.638Z,0.50
2022-09-17T15:09:37.921Z,0.52
2022-09-17T15:12:08.694Z,0.50
2022-09-17T15:14:40.345Z,0.35
2022-09-17T15:17:14.806Z,0.30
2022-09-17T15:19:48.073Z,0.50
2022-09-17T15:22:19.184Z,0.45
2022-09-17T15:24:54.125Z,0.38
2022-09-17T15:27:26.051Z,0.30
2022-09-17T15:30:01.241Z,0.20
2022-09-17T15:32:29.791Z,0.20
2022-09-17T15:35:18.895Z,0.28
2022-09-17T15:38:11.467Z,0.13
2022-09-17T15:40:41.010Z,0.28
2022-09-17T15:43:18.644Z,0.20
2022-09-17T15:45:48.194Z,0.20
2022-09-17T15:48:41.482Z,0.45
2022-09-17T15:51:25.664Z,0.30
2022-09-17T15:53:55.439Z,0.40
2022-09-17T15:56:26.976Z,0.47
2022-09-17T15:58:59.773Z,0.68
2022-09-17T16:01:56.888Z,0.75
2022-09-17T16:04:27.716Z,0.50
2022-09-17T16:06:58.291Z,0.55
2022-09-17T16:09:48.839Z,0.73
2022-09-17T16:12:19.264Z,0.70
2022-09-17T16:14:49.395Z,0.70
2022-09-17T16:17:33.097Z,0.77
2022-09-17T16:20:06.530Z,1.20
2022-09-17T16:22:34.868Z,0.90
2022-09-17T16:25:03.438Z,0.60
2022-09-17T16:27:35.869Z,0.40
2022-09-17T16:30:06.548Z,0.50
2022-09-17T16:32:36.089Z,0.60
2022-09-17T16:35:05.153Z,0.80
2022-09-17T16:37:33.367Z,0.82
2022-09-17T16:40:02.080Z,1.17
2022-09-17T16:42:32.142Z,2.03
2022-09-17T16:45:03.427Z,0.28
2022-09-17T16:47:38.668Z,0.35
2022-09-17T16:50:09.309Z,0.88
2022-09-17T16:52:37.968Z,0.52
2022-09-17T16:55:09.014Z,0.70
2022-09-17T16:57:37.609Z,0.68
2022-09-17T17:00:08.473Z,0.52
2022-09-17T17:02:38.269Z,0.77
2022-09-17T17:05:07.282Z,0.65
2022-09-17T17:07:36.828Z,0.80
2022-09-17T17:10:05.411Z,0.57
2022-09-17T17:12:33.665Z,0.38
2022-09-17T17:15:02.532Z,0.75
2022-09-17T17:17:31.037Z,1.02
2022-09-17T17:20:00.807Z,0.47
2022-09-17T17:22:29.033Z,0.30
2022-09-17T17:24:58.067Z,0.35
2022-09-17T17:27:26.411Z,0.40
2022-09-17T17:29:54.661Z,0.70
2022-09-17T17:32:22.850Z,1.02
2022-09-17T17:34:51.260Z,1.15
2022-09-17T17:37:23.226Z,1.90
2022-09-17T17:39:51.441Z,0.80
2022-09-17T17:42:19.669Z,0.80
2022-09-17T17:44:48.515Z,0.70
2022-09-17T17:47:16.722Z,0.50
2022-09-17T17:49:45.134Z,0.88
2022-09-17T17:52:13.325Z,0.55
2022-09-17T17:54:43.005Z,0.90
2022-09-17T17:57:11.577Z,0.70
2022-09-17T17:59:39.802Z,0.80
2022-09-17T18:02:08.251Z,0.95
2022-09-17T18:04:36.513Z,0.73
2022-09-17T18:07:05.149Z,0.80
2022-09-17T18:09:33.492Z,0.70
2022-09-17T18:12:03.456Z,0.88
2022-09-17T18:14:31.691Z,0.45
2022-09-17T18:16:59.954Z,0.57
2022-09-17T18:19:29.746Z,1.10
2022-09-17T18:21:58.125Z,0.60
2022-09-17T18:24:26.434Z,0.73
2022-09-17T18:26:54.673Z,0.55
2022-09-17T18:29:24.402Z,1.05
2022-09-17T18:31:52.667Z,0.98
2022-09-17T18:34:20.851Z,0.60
2022-09-17T18:36:51.339Z,0.50
2022-09-17T18:39:56.730Z,0.40
2022-09-17T18:42:09.726Z,0.40
2022-09-17T18:44:39.329Z,0.45
2022-09-17T18:47:07.785Z,0.63
2022-09-17T18:49:36.070Z,0.98
2022-09-17T18:52:04.426Z,0.47
2022-09-17T18:54:32.630Z,0.40
2022-09-17T18:57:00.845Z,0.77
2022-09-17T18:59:29.088Z,0.70
2022-09-17T19:01:58.745Z,0.95
2022-09-17T19:04:29.430Z,0.80
2022-09-17T19:06:57.782Z,0.85
2022-09-17T19:09:26.136Z,0.60
2022-09-17T19:11:54.351Z,0.95
2022-09-17T19:14:22.508Z,0.43
2022-09-17T19:16:50.839Z,3.63
2022-09-17T19:19:20.543Z,0.70
2022-09-17T19:21:50.741Z,0.60
2022-09-17T19:24:18.945Z,0.55
2022-09-17T19:26:50.759Z,0.77
2022-09-17T19:29:19.174Z,0.63
2022-09-17T19:31:47.384Z,0.63
2022-09-17T19:34:15.584Z,1.08
2022-09-17T19:36:45.201Z,0.63
2022-09-17T19:39:13.976Z,0.40
2022-09-17T19:41:42.132Z,0.80
2022-09-17T19:44:10.374Z,0.70
2022-09-17T19:46:38.709Z,0.60
2022-09-17T19:49:07.041Z,0.47
2022-09-17T19:51:36.300Z,0.40
2022-09-17T19:54:06.790Z,0.32
2022-09-17T19:56:35.756Z,0.52
2022-09-17T19:59:04.173Z,0.88
2022-09-17T20:01:34.657Z,0.95
2022-09-17T20:04:03.418Z,0.82
2022-09-17T20:06:34.764Z,1.95
2022-09-17T20:09:03.159Z,0.82
2022-09-17T20:11:32.765Z,0.55
2022-09-17T20:14:03.157Z,0.50
2022-09-17T20:16:31.836Z,0.60
2022-09-17T20:19:00.414Z,0.52
2022-09-17T20:21:30.211Z,0.70
2022-09-17T20:23:58.843Z,0.40
2022-09-17T20:26:27.710Z,0.38
2022-09-17T20:28:57.468Z,1.05
2022-09-17T20:31:27.913Z,0.40
2022-09-17T20:33:57.790Z,0.50
2022-09-17T20:36:28.682Z,0.30
2022-09-17T20:39:11.537Z,0.55
2022-09-17T20:41:45.120Z,0.50
2022-09-17T20:44:14.765Z,0.70
2022-09-17T20:46:43.026Z,0.63
2022-09-17T20:49:11.259Z,0.43
2022-09-17T20:51:39.454Z,0.40
2022-09-17T20:54:08.427Z,0.40
2022-09-17T20:56:37.278Z,0.80
2022-09-17T20:59:14.449Z,0.40
2022-09-17T21:01:45.468Z,0.68
2022-09-17T21:04:16.503Z,0.60
2022-09-17T21:06:45.848Z,0.40
2022-09-17T21:09:16.827Z,0.52
2022-09-17T21:11:46.388Z,1.00
2022-09-17T21:14:15.904Z,0.50
2022-09-17T21:16:46.555Z,0.60
2022-09-17T21:19:16.251Z,0.55
2022-09-17T21:21:44.671Z,0.82
2022-09-17T21:24:13.052Z,0.50
2022-09-17T21:26:41.343Z,0.60
2022-09-17T21:29:09.693Z,1.15
2022-09-17T21:31:38.735Z,0.50
2022-09-17T21:34:11.398Z,0.50
2022-09-17T21:36:41.475Z,0.40
2022-09-17T21:39:14.418Z,0.77
2022-09-17T21:41:43.186Z,0.32
2022-09-17T21:44:12.424Z,0.50
2022-09-17T21:46:41.616Z,0.60
2022-09-17T21:49:13.658Z,0.73
2022-09-17T21:51:43.693Z,0.60
2022-09-17T21:54:13.755Z,0.60
2022-09-17T21:56:41.990Z,0.80
2022-09-17T21:59:12.932Z,0.50
2022-09-17T22:01:43.895Z,1.05
2022-09-17T22:04:15.903Z,0.70
2022-09-17T22:06:45.317Z,0.70
2022-09-17T22:09:15.991Z,0.98
2022-09-17T22:11:45.470Z,0.90
2022-09-17T22:14:15.818Z,3.67
2022-09-17T22:16:45.331Z,1.15
2022-09-17T22:19:17.175Z,1.85
2022-09-17T22:21:47.449Z,1.40
2022-09-17T22:24:17.586Z,2.08
2022-09-17T22:26:49.195Z,5.55
2022-09-17T22:29:22.073Z,3.92
2022-09-17T22:31:50.914Z,2.88
2022-09-17T22:34:22.370Z,0.73
2022-09-17T22:36:50.980Z,0.80
2022-09-17T22:39:21.888Z,0.30
2022-09-17T22:41:50.582Z,0.63
2022-09-17T22:44:20.426Z,0.60
2022-09-17T22:46:49.852Z,0.57
2022-09-17T22:49:19.069Z,0.43
2022-09-17T22:51:48.925Z,0.73
2022-09-17T22:54:18.909Z,0.55
2022-09-17T22:56:48.827Z,0.70
2022-09-17T22:59:18.203Z,0.65
2022-09-17T23:01:46.573Z,0.55
2022-09-17T23:04:14.818Z,1.15
2022-09-17T23:06:43.087Z,1.13
2022-09-17T23:09:13.397Z,1.15
2022-09-17T23:11:41.720Z,0.50
2022-09-17T23:14:13.239Z,0.40
2022-09-17T23:16:43.358Z,0.50
2022-09-17T23:19:12.838Z,0.55
2022-09-17T23:21:41.165Z,0.75
2022-09-17T23:24:10.140Z,0.50
2022-09-17T23:26:39.786Z,0.50
2022-09-17T23:29:08.155Z,0.40
2022-09-17T23:31:36.388Z,0.40
2022-09-17T23:34:06.195Z,0.60
2022-09-17T23:36:36.185Z,0.40
2022-09-17T23:39:06.383Z,0.50
2022-09-17T23:41:36.347Z,0.20
2022-09-17T23:44:13.740Z,0.40
2022-09-17T23:46:44.406Z,0.40
2022-09-17T23:49:14.382Z,0.32
2022-09-17T23:51:42.847Z,0.40
2022-09-17T23:54:11.095Z,0.30
2022-09-17T23:56:39.362Z,0.35
2022-09-17T23:59:08.955Z,0.47
